KELP/ELP METAR and TAF weather

Enter ICAO airport designator
Station Type Date Time Source
KELP METAR 2021/09/24 00:51 UTC NOAA

KELP 240051Z 27017G21KT 10SM SCT140 BKN180 BKN250 28/09 A2999 RMK AO2 SLP090 SHRA DSNT S-W T02830089


Station Type Date Time Source
KELP Decoded METAR 2021/09/24 00:51 UTC NOAA

EL PASO INTERNATIONAL AIRPORT , TX, United States (KELP) 31-49N 106-23W 1197M
Sep 23, 2021 - 08:51 PM EDT / 2021.09.24 0051 UTC
Wind: from the W (270 degrees) at 20 MPH (17 KT) gusting to 24 MPH (21 KT):0
Visibility: 10 mile(s):0
Sky conditions: mostly cloudy
Temperature: 82.9 F (28.3 C)
Dew Point: 48.0 F (8.9 C)
Relative Humidity: 29%
Pressure (altimeter): 29.99 in. Hg (1015 hPa)
ob: KELP 240051Z 27017G21KT 10SM SCT140 BKN180 BKN250 28/09 A2999 RMK AO2 SLP090 SHRA DSNT S-W T02830089
cycle: 1

Station Type Date Time Source
KELP TAF 2021/09/23 18:22 UTC NOAA

TAF KELP 231720Z 2318/2418 19006KT P6SM SCT220
FM240100 25010KT P6SM SCT100 BKN150
FM240600 22007KT P6SM VCSH BKN080 BKN120
TEMPO 2408/2412 6SM -SHRA BKN050

Example: see airport list